Time;durP1;ratioP1;P1;durP2;ratioP2;P2;SDS_P1;SDS_P2;PMS_P1;PMS_P2;Temp;Humidity;BMP_temperature;BMP_pressure;BME280_temperature;BME280_humidity;BME280_pressure;Samples;Min_cycle;Max_cycle;Signal;HPM_P1;HPM_P2
2023/08/23 00:00:09;;;;;;;4.72;2.92;;;26.00;60.60;;;;;;5045615;28;20043;-64
2023/08/23 00:02:34;;;;;;;5.85;2.72;;;26.00;60.60;;;;;;5044902;28;20051;-65
2023/08/23 00:05:00;;;;;;;4.25;2.92;;;26.00;60.70;;;;;;5048462;28;20041;-65
2023/08/23 00:07:26;;;;;;;4.00;2.90;;;25.90;60.60;;;;;;5051592;28;20021;-64
2023/08/23 00:09:52;;;;;;;3.35;2.55;;;25.90;60.60;;;;;;5043417;28;20092;-65
2023/08/23 00:12:17;;;;;;;4.00;2.75;;;25.90;60.60;;;;;;5039129;28;20108;-64
2023/08/23 00:14:43;;;;;;;7.93;2.85;;;25.90;60.70;;;;;;5052157;28;20540;-65
2023/08/23 00:17:09;;;;;;;4.45;3.00;;;25.80;61.50;;;;;;5051460;28;20032;-64
2023/08/23 00:19:35;;;;;;;6.35;3.17;;;25.80;60.90;;;;;;5063647;28;20498;-65
2023/08/23 00:22:02;;;;;;;5.97;2.75;;;25.80;61.00;;;;;;5052235;28;20468;-65
2023/08/23 00:24:28;;;;;;;3.72;2.58;;;25.80;61.00;;;;;;5050608;28;20049;-66
2023/08/23 00:26:54;;;;;;;5.93;2.30;;;25.80;60.90;;;;;;5051557;28;20483;-65
2023/08/23 00:29:20;;;;;;;5.50;2.78;;;25.70;60.70;;;;;;5048779;28;20507;-65
2023/08/23 00:31:45;;;;;;;6.68;2.65;;;25.70;60.50;;;;;;5045930;28;20032;-65
2023/08/23 00:34:11;;;;;;;3.78;2.33;;;25.70;60.40;;;;;;5049704;28;20033;-65
2023/08/23 00:36:37;;;;;;;4.53;2.75;;;25.70;60.40;;;;;;5044426;28;20531;-64
2023/08/23 00:39:02;;;;;;;5.15;2.75;;;25.60;60.20;;;;;;5056026;28;20028;-66
2023/08/23 00:41:28;;;;;;;8.18;2.50;;;25.60;60.30;;;;;;5046630;28;20388;-64
2023/08/23 00:43:54;;;;;;;6.32;2.85;;;25.60;60.20;;;;;;5051478;28;20111;-65
2023/08/23 00:46:20;;;;;;;3.92;2.80;;;25.60;60.50;;;;;;5045003;28;20032;-65
2023/08/23 00:48:47;;;;;;;5.45;2.75;;;25.50;60.80;;;;;;5050208;28;20036;-65
2023/08/23 00:51:13;;;;;;;7.10;3.00;;;25.50;61.20;;;;;;5045942;28;20018;-65
2023/08/23 00:53:39;;;;;;;5.68;3.10;;;25.50;61.50;;;;;;5047310;28;20084;-65
2023/08/23 00:56:05;;;;;;;5.10;2.78;;;25.50;61.70;;;;;;5051844;28;20037;-65
2023/08/23 00:58:32;;;;;;;5.47;2.55;;;25.50;61.30;;;;;;5050170;28;20043;-65
2023/08/23 01:00:58;;;;;;;7.18;2.60;;;25.40;61.10;;;;;;5046362;28;20035;-64
2023/08/23 01:03:23;;;;;;;3.25;2.65;;;25.50;61.00;;;;;;5049009;28;20025;-64
2023/08/23 01:05:58;;;;;;;4.05;2.60;;;25.40;60.90;;;;;;5052205;28;20064;-64
2023/08/23 01:08:26;;;;;;;4.50;2.75;;;25.40;61.50;;;;;;5046877;28;20483;-64
2023/08/23 01:10:58;;;;;;;4.55;2.85;;;25.40;61.40;;;;;;5046528;28;20056;-66
2023/08/23 01:13:37;;;;;;;10.25;3.10;;;25.40;61.90;;;;;;5045556;28;20036;-66
2023/08/23 01:16:04;;;;;;;5.00;2.63;;;25.40;62.30;;;;;;5044894;28;20150;-64
2023/08/23 01:18:31;;;;;;;5.53;3.15;;;25.40;61.70;;;;;;5056720;28;20021;-66
2023/08/23 01:20:58;;;;;;;6.65;2.72;;;25.40;60.90;;;;;;5051272;28;20040;-65
2023/08/23 01:23:26;;;;;;;8.70;3.00;;;25.40;60.60;;;;;;5049653;28;20033;-65
2023/08/23 01:25:52;;;;;;;3.30;2.55;;;25.30;60.40;;;;;;5051416;28;20120;-66
2023/08/23 01:28:19;;;;;;;6.53;2.88;;;25.30;60.40;;;;;;5052597;28;20041;-64
2023/08/23 01:30:46;;;;;;;7.15;2.92;;;25.30;60.50;;;;;;4952258;28;20554;-65
2023/08/23 01:33:26;;;;;;;6.82;3.22;;;25.30;60.50;;;;;;5045592;28;20730;-66
2023/08/23 01:36:01;;;;;;;3.47;2.78;;;25.30;61.40;;;;;;5050867;28;20546;-65
2023/08/23 01:38:29;;;;;;;3.67;2.70;;;25.20;60.90;;;;;;5042351;28;20060;-65
2023/08/23 01:40:56;;;;;;;4.45;2.65;;;25.20;61.10;;;;;;5044967;28;20052;-65
2023/08/23 01:43:22;;;;;;;2.75;2.33;;;25.20;60.90;;;;;;5045870;28;20622;-65
2023/08/23 01:45:48;;;;;;;6.63;2.80;;;25.20;60.90;;;;;;5050873;28;20516;-65
2023/08/23 01:48:14;;;;;;;3.45;2.58;;;25.10;60.80;;;;;;5047744;28;20029;-65
2023/08/23 01:50:40;;;;;;;6.10;2.83;;;25.10;60.80;;;;;;5048367;28;20029;-65
2023/08/23 01:53:06;;;;;;;2.75;2.42;;;25.00;60.60;;;;;;5046006;28;20037;-65
2023/08/23 01:55:32;;;;;;;6.10;2.78;;;24.90;60.60;;;;;;5046593;28;20649;-65
2023/08/23 01:57:58;;;;;;;2.85;2.50;;;24.80;60.50;;;;;;5046396;28;20651;-65
2023/08/23 02:00:24;;;;;;;6.43;2.85;;;24.70;60.50;;;;;;5047204;28;20031;-65
2023/08/23 02:02:49;;;;;;;6.85;2.88;;;24.70;60.60;;;;;;5046829;28;20479;-65
2023/08/23 02:05:15;;;;;;;3.35;2.70;;;24.60;60.80;;;;;;5047735;28;20037;-65
2023/08/23 02:07:41;;;;;;;9.00;3.28;;;24.50;61.00;;;;;;5046123;28;20508;-64
2023/08/23 02:10:07;;;;;;;3.55;2.88;;;24.40;61.20;;;;;;5043388;28;20534;-64
2023/08/23 02:12:32;;;;;;;4.53;2.58;;;24.40;61.60;;;;;;5051439;28;20074;-65
2023/08/23 02:14:58;;;;;;;4.75;2.50;;;24.30;61.70;;;;;;5060154;28;20036;-65
2023/08/23 02:17:24;;;;;;;9.25;2.72;;;24.30;61.80;;;;;;5043005;28;20025;-65
2023/08/23 02:19:50;;;;;;;6.10;2.88;;;24.30;62.00;;;;;;5048519;28;20086;-65
2023/08/23 02:22:15;;;;;;;6.03;2.58;;;24.30;62.10;;;;;;5046749;28;20017;-65
2023/08/23 02:24:41;;;;;;;3.95;2.60;;;24.20;62.20;;;;;;5043968;28;20075;-65
2023/08/23 02:27:07;;;;;;;3.55;2.90;;;24.10;62.30;;;;;;5043609;28;20087;-65
2023/08/23 02:29:32;;;;;;;4.47;3.38;;;24.10;62.50;;;;;;5049748;28;20027;-66
2023/08/23 02:31:58;;;;;;;3.53;2.58;;;24.10;62.70;;;;;;5051601;28;20021;-65
2023/08/23 02:34:24;;;;;;;4.82;2.80;;;24.00;62.70;;;;;;5052489;28;20037;-65
2023/08/23 02:36:50;;;;;;;8.00;2.88;;;24.00;62.90;;;;;;5046800;28;20040;-65
2023/08/23 02:39:19;;;;;;;4.43;2.53;;;24.00;63.20;;;;;;5045846;28;20029;-65
2023/08/23 02:41:45;;;;;;;5.78;3.10;;;24.00;63.30;;;;;;5044919;28;20044;-65
2023/08/23 02:44:10;;;;;;;5.00;2.72;;;24.00;63.40;;;;;;5050233;28;20029;-65
2023/08/23 02:46:36;;;;;;;9.30;2.83;;;23.90;63.10;;;;;;5050282;28;20079;-65
2023/08/23 02:49:01;;;;;;;5.20;2.80;;;23.90;62.90;;;;;;5048792;28;20035;-65
2023/08/23 02:51:27;;;;;;;4.10;2.80;;;23.90;62.80;;;;;;5047058;28;20027;-65
2023/08/23 02:53:53;;;;;;;7.63;2.90;;;23.80;62.80;;;;;;5047433;28;20037;-65
2023/08/23 02:56:18;;;;;;;5.95;2.63;;;23.80;63.00;;;;;;5050645;28;20525;-64
2023/08/23 02:58:44;;;;;;;7.32;2.70;;;23.70;63.00;;;;;;5048871;28;20467;-64
2023/08/23 03:01:10;;;;;;;4.75;2.70;;;23.70;63.30;;;;;;5047568;28;20087;-65
2023/08/23 03:03:35;;;;;;;7.85;2.72;;;23.70;63.40;;;;;;5045201;28;20032;-65
2023/08/23 03:06:01;;;;;;;4.32;2.80;;;23.60;63.30;;;;;;5039964;28;20482;-65
2023/08/23 03:08:27;;;;;;;4.10;2.78;;;23.60;63.40;;;;;;5044297;28;20025;-65
2023/08/23 03:11:04;;;;;;;6.82;2.90;;;23.50;63.30;;;;;;5048180;28;20552;-65
2023/08/23 03:13:31;;;;;;;3.63;2.65;;;23.50;63.80;;;;;;5049017;28;20036;-65
2023/08/23 03:15:56;;;;;;;5.88;2.85;;;23.50;63.40;;;;;;5046050;28;20036;-65
2023/08/23 03:18:23;;;;;;;4.82;2.83;;;23.50;63.40;;;;;;5052175;28;20045;-65
2023/08/23 03:20:50;;;;;;;5.45;2.95;;;23.40;63.40;;;;;;5043045;28;20032;-65
2023/08/23 03:23:19;;;;;;;7.63;2.85;;;23.40;63.50;;;;;;5046235;28;20613;-65
2023/08/23 03:25:46;;;;;;;3.80;2.80;;;23.30;63.80;;;;;;5045882;28;20033;-65
2023/08/23 03:28:12;;;;;;;7.50;3.00;;;23.20;63.60;;;;;;5045685;28;20029;-64
2023/08/23 03:30:38;;;;;;;6.70;2.63;;;23.20;63.70;;;;;;5050100;28;20024;-65
2023/08/23 03:33:05;;;;;;;5.65;2.78;;;23.10;63.80;;;;;;5049571;28;20400;-64
2023/08/23 03:35:31;;;;;;;8.40;3.13;;;23.10;63.90;;;;;;5047464;28;20032;-65
2023/08/23 03:37:57;;;;;;;4.38;2.60;;;23.00;64.10;;;;;;5050037;28;20025;-64
2023/08/23 03:40:22;;;;;;;5.43;2.78;;;23.00;64.30;;;;;;4997447;28;20030;-65
2023/08/23 03:42:48;;;;;;;4.60;2.92;;;22.90;64.50;;;;;;5048697;28;20086;-65
2023/08/23 03:45:14;;;;;;;7.60;2.80;;;22.90;64.50;;;;;;5042142;28;20025;-65
2023/08/23 03:47:40;;;;;;;5.25;3.00;;;22.90;64.80;;;;;;5050215;28;20029;-65
2023/08/23 03:50:06;;;;;;;5.57;2.85;;;22.80;64.90;;;;;;5043381;28;20026;-65
2023/08/23 03:52:31;;;;;;;5.85;3.00;;;22.80;64.90;;;;;;5053701;28;20028;-65
2023/08/23 03:54:57;;;;;;;5.03;3.20;;;22.80;65.00;;;;;;5046404;28;20037;-65
2023/08/23 03:57:23;;;;;;;4.25;3.00;;;22.80;64.90;;;;;;5047985;28;20035;-65
2023/08/23 03:59:48;;;;;;;3.85;2.95;;;22.80;64.90;;;;;;5049888;28;20025;-64
2023/08/23 04:02:14;;;;;;;5.43;3.05;;;22.70;64.80;;;;;;5048555;28;20388;-64
2023/08/23 04:04:39;;;;;;;5.85;3.38;;;22.70;64.90;;;;;;5048597;28;20021;-64
2023/08/23 04:07:09;;;;;;;4.15;2.72;;;22.70;65.00;;;;;;5052906;28;20075;-65
2023/08/23 04:09:34;;;;;;;4.18;2.95;;;22.70;65.10;;;;;;5041564;28;20049;-65
2023/08/23 04:12:00;;;;;;;4.45;2.97;;;22.60;65.00;;;;;;5047183;28;20048;-64
2023/08/23 04:14:26;;;;;;;8.68;2.83;;;22.60;65.10;;;;;;5045002;28;20037;-65
2023/08/23 04:16:51;;;;;;;5.57;2.72;;;22.60;65.20;;;;;;5042139;28;20029;-65
2023/08/23 04:19:17;;;;;;;3.83;2.75;;;22.60;65.30;;;;;;5041868;28;20026;-65
2023/08/23 04:21:46;;;;;;;14.02;2.70;;;22.60;65.50;;;;;;5043826;28;20032;-64
2023/08/23 04:24:11;;;;;;;6.75;3.33;;;22.50;65.70;;;;;;5051381;28;20021;-65
2023/08/23 04:26:38;;;;;;;7.90;3.08;;;22.50;65.70;;;;;;5050085;28;20085;-65
2023/08/23 04:29:04;;;;;;;4.45;3.17;;;22.50;65.80;;;;;;5049559;28;20104;-64
2023/08/23 04:31:30;;;;;;;7.22;2.90;;;22.50;66.00;;;;;;5045335;28;20033;-64
2023/08/23 04:33:55;;;;;;;6.80;3.47;;;22.50;66.10;;;;;;5042265;28;20041;-65
2023/08/23 04:36:21;;;;;;;4.30;3.00;;;22.50;66.10;;;;;;5040365;28;20353;-64
2023/08/23 04:38:47;;;;;;;5.00;3.08;;;22.50;66.20;;;;;;4984845;28;20100;-64
2023/08/23 04:41:13;;;;;;;3.42;2.67;;;22.60;66.10;;;;;;5049941;28;20025;-64
2023/08/23 04:43:38;;;;;;;4.00;2.78;;;22.50;66.20;;;;;;5047596;28;20526;-65
2023/08/23 04:46:06;;;;;;;6.45;3.10;;;22.50;66.30;;;;;;5046256;28;20138;-64
2023/08/23 04:48:32;;;;;;;6.53;2.85;;;22.50;66.40;;;;;;5043459;28;20408;-64
2023/08/23 04:50:58;;;;;;;4.57;2.60;;;22.50;66.10;;;;;;5040347;28;20029;-64
2023/08/23 04:53:25;;;;;;;5.07;2.67;;;22.50;66.20;;;;;;5046134;28;20037;-64
2023/08/23 04:55:55;;;;;;;5.07;2.88;;;22.50;66.30;;;;;;5046090;28;20033;-65
2023/08/23 04:58:22;;;;;;;5.03;2.97;;;22.50;66.50;;;;;;5045761;28;20070;-65
2023/08/23 05:00:48;;;;;;;7.57;3.05;;;22.50;66.70;;;;;;5048071;28;20075;-65
2023/08/23 05:03:14;;;;;;;5.28;2.53;;;22.50;66.70;;;;;;5043862;28;20551;-65
2023/08/23 05:05:41;;;;;;;5.72;2.70;;;22.50;66.80;;;;;;5052182;28;20063;-65
2023/08/23 05:08:07;;;;;;;3.17;2.85;;;22.50;66.80;;;;;;5055195;28;20519;-64
2023/08/23 05:10:32;;;;;;;4.47;3.05;;;22.60;66.90;;;;;;5066407;28;20044;-65
2023/08/23 05:13:00;;;;;;;4.57;3.10;;;22.60;66.90;;;;;;5067803;28;20047;-65
2023/08/23 05:15:25;;;;;;;3.42;3.13;;;22.60;67.80;;;;;;5050687;28;20043;-64
2023/08/23 05:17:52;;;;;;;4.00;3.03;;;22.70;67.20;;;;;;5048495;28;20029;-65
2023/08/23 05:20:17;;;;;;;5.85;3.40;;;22.70;67.30;;;;;;5042798;28;20024;-65
2023/08/23 05:22:43;;;;;;;4.18;2.88;;;22.80;67.40;;;;;;5048588;28;20372;-65
2023/08/23 05:25:09;;;;;;;8.40;3.13;;;22.80;67.20;;;;;;5052412;28;20082;-65
2023/08/23 05:27:34;;;;;;;4.93;3.15;;;22.90;67.10;;;;;;5041313;28;20035;-65
2023/08/23 05:30:03;;;;;;;4.22;3.10;;;23.00;67.10;;;;;;5047685;28;20040;-65
2023/08/23 05:32:29;;;;;;;4.63;3.00;;;23.10;67.10;;;;;;5043221;28;20025;-65
2023/08/23 05:34:54;;;;;;;7.90;3.47;;;23.10;66.80;;;;;;5050314;28;20044;-65
2023/08/23 05:37:20;;;;;;;4.97;3.25;;;23.20;66.80;;;;;;5052260;28;20036;-65
2023/08/23 05:39:47;;;;;;;3.53;2.70;;;23.40;66.70;;;;;;5048422;28;20032;-64
2023/08/23 05:42:13;;;;;;;5.45;2.92;;;23.40;66.40;;;;;;5045540;28;20636;-64
2023/08/23 05:44:38;;;;;;;4.20;3.20;;;23.50;66.20;;;;;;5055698;28;20037;-65
2023/08/23 05:47:04;;;;;;;5.80;3.00;;;23.50;66.10;;;;;;5046700;28;20017;-65
2023/08/23 05:49:30;;;;;;;4.88;3.30;;;23.60;66.00;;;;;;5051921;28;20030;-65
2023/08/23 05:51:55;;;;;;;5.90;3.25;;;23.60;66.00;;;;;;5041826;28;20088;-64
2023/08/23 05:54:23;;;;;;;6.20;3.70;;;23.70;66.00;;;;;;5045571;28;20033;-64
2023/08/23 05:56:48;;;;;;;10.13;3.47;;;23.70;65.90;;;;;;5052178;28;20082;-64
2023/08/23 05:59:14;;;;;;;13.45;3.30;;;23.70;65.80;;;;;;5049210;28;20029;-64
2023/08/23 06:01:39;;;;;;;12.50;3.58;;;23.80;65.80;;;;;;5050710;28;20025;-65
2023/08/23 06:04:05;;;;;;;10.77;3.65;;;23.90;65.80;;;;;;5048091;28;20087;-64
2023/08/23 06:06:31;;;;;;;8.60;3.22;;;23.90;65.70;;;;;;5042778;28;20029;-65
2023/08/23 06:08:56;;;;;;;6.68;3.38;;;24.00;65.60;;;;;;5049906;28;20432;-64
2023/08/23 06:11:22;;;;;;;11.93;3.63;;;24.10;65.70;;;;;;5047294;28;20434;-64
2023/08/23 06:13:50;;;;;;;6.47;3.60;;;24.20;65.70;;;;;;5047300;28;20558;-65
2023/08/23 06:16:15;;;;;;;9.95;3.40;;;24.30;65.50;;;;;;5044941;28;20044;-64
2023/08/23 06:18:41;;;;;;;6.95;3.22;;;24.40;65.20;;;;;;5049702;28;20025;-65
2023/08/23 06:21:07;;;;;;;8.48;3.67;;;24.50;64.70;;;;;;5050842;28;20028;-65
2023/08/23 06:23:32;;;;;;;13.93;3.53;;;24.70;64.40;;;;;;5045979;28;20120;-65
2023/08/23 06:25:59;;;;;;;15.15;3.05;;;24.70;64.10;;;;;;5048198;28;20021;-65
2023/08/23 06:28:25;;;;;;;7.72;3.05;;;24.70;64.10;;;;;;5050122;28;20440;-65
2023/08/23 06:30:50;;;;;;;13.85;3.80;;;24.80;64.10;;;;;;5047112;28;20099;-65
2023/08/23 06:33:16;;;;;;;8.95;3.63;;;24.90;63.90;;;;;;5047515;28;20033;-64
2023/08/23 06:35:42;;;;;;;6.57;3.08;;;25.00;63.80;;;;;;5046294;28;20035;-64
2023/08/23 06:38:07;;;;;;;10.85;3.47;;;25.20;64.50;;;;;;5046306;28;20508;-65
2023/08/23 06:40:33;;;;;;;11.35;3.13;;;25.30;63.80;;;;;;5043037;28;20040;-65
2023/08/23 06:42:59;;;;;;;12.88;3.10;;;25.40;63.20;;;;;;5043415;28;20039;-66
2023/08/23 06:45:24;;;;;;;6.20;2.88;;;25.60;63.30;;;;;;5043553;28;20112;-64
2023/08/23 06:47:50;;;;;;;8.05;2.97;;;25.70;62.90;;;;;;5049210;28;20427;-65
2023/08/23 06:50:16;;;;;;;7.75;3.33;;;25.80;62.60;;;;;;5053607;28;20013;-65
2023/08/23 06:52:41;;;;;;;4.60;2.97;;;25.90;63.00;;;;;;5047720;28;20545;-64
2023/08/23 06:55:07;;;;;;;11.10;3.38;;;26.00;61.90;;;;;;5053182;28;20059;-63
2023/08/23 06:57:33;;;;;;;8.90;3.10;;;26.00;61.80;;;;;;5046547;28;21070;-65
2023/08/23 06:59:59;;;;;;;5.43;2.80;;;26.10;61.50;;;;;;5042509;28;20039;-65
2023/08/23 07:02:25;;;;;;;6.85;3.00;;;26.10;61.30;;;;;;5050546;28;20429;-65
2023/08/23 07:04:52;;;;;;;5.65;3.10;;;26.20;61.40;;;;;;5047085;28;20053;-64
2023/08/23 07:07:21;;;;;;;5.10;3.20;;;26.20;61.20;;;;;;5049618;28;20383;-64
2023/08/23 07:09:47;;;;;;;6.53;2.88;;;26.30;61.50;;;;;;5044801;28;20404;-65
2023/08/23 07:12:12;;;;;;;11.95;3.28;;;26.30;61.20;;;;;;5047349;28;20033;-65
2023/08/23 07:14:38;;;;;;;5.70;3.20;;;26.40;61.30;;;;;;5048902;28;20060;-64
2023/08/23 07:17:04;;;;;;;5.68;2.80;;;26.40;61.20;;;;;;5036657;28;20072;-65
2023/08/23 07:19:30;;;;;;;5.35;2.92;;;26.50;60.90;;;;;;5046856;28;20071;-65
2023/08/23 07:21:58;;;;;;;5.70;3.38;;;26.60;60.60;;;;;;5045972;28;20029;-65
2023/08/23 07:24:24;;;;;;;6.18;2.95;;;26.70;59.90;;;;;;5050640;28;20028;-65
2023/08/23 07:26:49;;;;;;;4.63;2.67;;;26.70;60.00;;;;;;5038402;28;20063;-65
2023/08/23 07:29:16;;;;;;;5.82;2.63;;;26.90;60.30;;;;;;5045048;28;20029;-65
2023/08/23 07:31:43;;;;;;;4.53;2.80;;;26.90;59.70;;;;;;5047258;28;20032;-66
2023/08/23 07:34:09;;;;;;;6.25;2.83;;;27.10;59.40;;;;;;5047144;28;20036;-64
2023/08/23 07:36:35;;;;;;;11.13;2.80;;;27.30;59.10;;;;;;5049066;28;20046;-64
2023/08/23 07:39:01;;;;;;;5.95;3.25;;;27.40;58.80;;;;;;4983008;28;20456;-63
2023/08/23 07:41:26;;;;;;;5.55;2.80;;;27.60;58.50;;;;;;5046972;28;20032;-64
2023/08/23 07:43:52;;;;;;;8.77;2.60;;;27.70;57.50;;;;;;5058708;28;20021;-65
2023/08/23 07:46:18;;;;;;;7.63;2.90;;;27.90;56.70;;;;;;5047525;28;20035;-65
2023/08/23 07:48:44;;;;;;;10.18;3.05;;;28.00;56.40;;;;;;5039733;28;20404;-65
2023/08/23 07:51:09;;;;;;;3.45;2.20;;;28.10;55.90;;;;;;5047231;28;20472;-65
2023/08/23 07:53:36;;;;;;;6.68;2.38;;;28.20;55.50;;;;;;5046127;28;20422;-63
2023/08/23 07:56:02;;;;;;;6.88;2.45;;;28.30;55.30;;;;;;5045433;28;20044;-64
2023/08/23 07:58:28;;;;;;;3.97;2.40;;;28.40;55.00;;;;;;5043553;28;20025;-65
2023/08/23 08:00:54;;;;;;;6.55;2.30;;;28.50;55.10;;;;;;5044024;28;20494;-65
2023/08/23 08:03:20;;;;;;;4.80;2.30;;;28.60;54.40;;;;;;5044891;28;20537;-65
2023/08/23 08:05:46;;;;;;;5.55;2.60;;;28.70;53.60;;;;;;5042646;28;20549;-64
2023/08/23 08:08:12;;;;;;;5.95;2.85;;;28.90;53.80;;;;;;5045447;28;20037;-64
2023/08/23 08:10:38;;;;;;;7.72;2.75;;;29.00;53.50;;;;;;5045474;28;20332;-64
2023/08/23 08:13:04;;;;;;;5.55;2.70;;;29.00;53.20;;;;;;5050491;28;20103;-65
2023/08/23 08:15:31;;;;;;;4.70;2.42;;;29.10;52.40;;;;;;5049335;28;20025;-65
2023/08/23 08:17:57;;;;;;;5.50;2.38;;;29.10;51.90;;;;;;5045762;28;20036;-65
2023/08/23 08:20:24;;;;;;;3.47;2.55;;;29.20;52.10;;;;;;5043991;28;20392;-64
2023/08/23 08:22:50;;;;;;;5.45;2.90;;;29.30;52.00;;;;;;5043889;28;20146;-64
2023/08/23 08:25:16;;;;;;;6.18;2.97;;;29.40;51.70;;;;;;5040998;28;20025;-64
2023/08/23 08:27:42;;;;;;;6.28;2.90;;;29.50;51.60;;;;;;5041769;28;20064;-64
2023/08/23 08:30:08;;;;;;;5.65;2.63;;;29.50;51.30;;;;;;5047284;28;20100;-64
2023/08/23 08:32:34;;;;;;;4.75;3.10;;;29.60;51.20;;;;;;5049795;28;20048;-64
2023/08/23 08:35:00;;;;;;;4.28;2.58;;;29.70;50.60;;;;;;5041851;28;20032;-64
2023/08/23 08:37:26;;;;;;;8.88;3.15;;;29.80;50.80;;;;;;5048557;28;20059;-65
2023/08/23 08:39:51;;;;;;;7.30;2.40;;;29.80;51.20;;;;;;5046622;28;20484;-63
2023/08/23 08:42:17;;;;;;;6.13;3.30;;;29.90;50.90;;;;;;5049159;28;20017;-65
2023/08/23 08:44:44;;;;;;;4.05;2.70;;;30.00;50.40;;;;;;5048260;28;20024;-66
2023/08/23 08:47:10;;;;;;;10.15;2.65;;;30.00;49.90;;;;;;5048350;28;20111;-64
2023/08/23 08:49:36;;;;;;;5.47;2.70;;;30.00;50.00;;;;;;5048718;28;20128;-65
2023/08/23 08:52:04;;;;;;;4.47;2.60;;;30.10;50.10;;;;;;5046701;28;20028;-66
2023/08/23 08:54:33;;;;;;;2.83;2.42;;;30.10;49.30;;;;;;5048866;28;20040;-64
2023/08/23 08:57:00;;;;;;;4.07;2.75;;;30.10;49.20;;;;;;5053892;28;20134;-64
2023/08/23 08:59:25;;;;;;;7.60;2.20;;;30.20;48.70;;;;;;5046527;28;20116;-64
2023/08/23 09:01:54;;;;;;;3.92;2.40;;;30.30;48.90;;;;;;5050695;28;20116;-64
2023/08/23 09:04:20;;;;;;;4.80;2.60;;;30.30;49.30;;;;;;5055308;28;20012;-64
2023/08/23 09:06:47;;;;;;;5.03;2.50;;;30.40;49.70;;;;;;5047130;28;20051;-64
2023/08/23 09:09:13;;;;;;;3.80;2.45;;;30.50;49.90;;;;;;5053884;28;20047;-63
2023/08/23 09:11:39;;;;;;;11.48;2.97;;;30.60;48.50;;;;;;5046256;28;20036;-64
2023/08/23 09:14:15;;;;;;;3.28;2.08;;;30.70;48.80;;;;;;5047289;28;20095;-64
2023/08/23 09:16:41;;;;;;;3.92;2.28;;;30.80;47.90;;;;;;5051070;28;20068;-64
2023/08/23 09:19:11;;;;;;;5.82;2.50;;;30.90;47.50;;;;;;5047227;28;20052;-64
2023/08/23 09:21:45;;;;;;;4.95;2.22;;;30.90;46.90;;;;;;5045712;28;20029;-65
2023/08/23 09:24:12;;;;;;;3.20;1.98;;;31.00;46.90;;;;;;5047055;28;20048;-64
2023/08/23 09:26:38;;;;;;;3.53;2.20;;;31.00;46.90;;;;;;5045160;28;20028;-64
2023/08/23 09:29:04;;;;;;;4.28;2.50;;;31.00;46.60;;;;;;4948411;28;20042;-65
2023/08/23 09:31:30;;;;;;;5.10;2.40;;;31.10;46.60;;;;;;5048218;28;20032;-65
2023/08/23 09:33:57;;;;;;;9.75;2.80;;;30.90;46.60;;;;;;5049304;28;20475;-64
2023/08/23 09:36:30;;;;;;;3.55;2.30;;;30.90;46.80;;;;;;5042481;28;20032;-64
2023/08/23 09:39:00;;;;;;;3.80;2.35;;;30.90;46.50;;;;;;5050602;28;20118;-65
2023/08/23 09:41:25;;;;;;;5.13;2.25;;;30.90;46.90;;;;;;5046385;28;20517;-64
2023/08/23 09:43:56;;;;;;;3.95;2.28;;;30.90;47.00;;;;;;5050972;28;20056;-64
2023/08/23 09:46:25;;;;;;;3.42;2.30;;;30.90;46.90;;;;;;5042602;28;20108;-63
2023/08/23 09:48:55;;;;;;;5.10;2.38;;;30.90;46.70;;;;;;5045029;28;20028;-63
2023/08/23 09:51:25;;;;;;;4.68;2.50;;;31.00;46.90;;;;;;5053959;28;20047;-64
2023/08/23 09:53:58;;;;;;;3.47;2.28;;;31.10;46.60;;;;;;5042377;28;20036;-64
2023/08/23 09:56:24;;;;;;;4.32;2.38;;;31.10;45.60;;;;;;5047630;28;20025;-63
2023/08/23 09:58:50;;;;;;;4.85;2.33;;;31.10;46.80;;;;;;5048662;28;20422;-63
2023/08/23 10:01:16;;;;;;;7.70;2.78;;;31.10;46.90;;;;;;5045787;28;20029;-63
2023/08/23 10:03:42;;;;;;;5.60;2.40;;;31.10;46.70;;;;;;5044873;28;20025;-63
2023/08/23 10:06:08;;;;;;;9.23;2.17;;;31.20;47.20;;;;;;5047517;28;20035;-64
2023/08/23 10:08:36;;;;;;;4.32;2.00;;;31.30;46.80;;;;;;5046427;28;20037;-64
2023/08/23 10:11:02;;;;;;;6.88;2.33;;;31.50;46.70;;;;;;5045320;28;20097;-64
2023/08/23 10:13:31;;;;;;;4.55;2.60;;;31.60;46.90;;;;;;5046062;28;20033;-64
2023/08/23 10:15:58;;;;;;;3.80;2.47;;;31.70;46.60;;;;;;5052078;28;20025;-63
2023/08/23 10:18:25;;;;;;;5.72;2.40;;;31.90;46.50;;;;;;5049215;28;20027;-64
2023/08/23 10:20:52;;;;;;;2.90;2.10;;;32.00;46.50;;;;;;5045611;28;20028;-63
2023/08/23 10:23:18;;;;;;;4.70;2.47;;;32.10;45.90;;;;;;5048883;28;20123;-64
2023/08/23 10:25:46;;;;;;;4.82;2.40;;;32.30;45.60;;;;;;5045884;28;20145;-64
2023/08/23 10:28:19;;;;;;;5.55;2.50;;;32.40;46.30;;;;;;4989053;28;20122;-64
2023/08/23 10:30:51;;;;;;;3.95;2.20;;;32.50;45.70;;;;;;5041403;28;20476;-63
2023/08/23 10:33:18;;;;;;;8.50;2.85;;;32.60;45.40;;;;;;5045142;28;20033;-63
2023/08/23 10:35:46;;;;;;;4.07;2.30;;;32.70;45.60;;;;;;5044090;28;20037;-63
2023/08/23 10:38:12;;;;;;;9.18;2.53;;;32.80;44.70;;;;;;5046617;28;20147;-64
2023/08/23 10:40:40;;;;;;;4.25;2.45;;;32.80;44.00;;;;;;5037708;28;20086;-64
2023/08/23 10:43:13;;;;;;;4.55;2.45;;;32.90;44.30;;;;;;5044301;28;20034;-64
2023/08/23 10:46:08;;;;;;;3.05;2.40;;;33.00;43.90;;;;;;5046464;28;20074;-64
2023/08/23 10:48:34;;;;;;;12.43;2.50;;;33.10;44.20;;;;;;5048947;28;20086;-64
2023/08/23 10:51:01;;;;;;;3.22;2.42;;;33.20;44.60;;;;;;5045855;28;20071;-63
2023/08/23 10:53:26;;;;;;;7.60;2.30;;;33.30;44.50;;;;;;5045993;28;20047;-63
2023/08/23 10:55:52;;;;;;;3.30;2.05;;;33.40;43.50;;;;;;5049986;28;20025;-63
2023/08/23 10:58:18;;;;;;;3.10;2.05;;;33.60;43.20;;;;;;5049682;28;20017;-64
2023/08/23 11:00:45;;;;;;;3.83;2.20;;;33.70;44.00;;;;;;5049673;28;20037;-65
2023/08/23 11:03:12;;;;;;;5.10;2.35;;;33.80;43.60;;;;;;5050379;28;20134;-63
2023/08/23 11:05:38;;;;;;;3.88;2.30;;;33.80;43.30;;;;;;5043588;28;20029;-64
2023/08/23 11:08:05;;;;;;;5.38;2.30;;;33.90;43.00;;;;;;5049157;28;20439;-64
2023/08/23 11:10:31;;;;;;;6.88;2.65;;;34.00;43.10;;;;;;5046855;28;20049;-64
2023/08/23 11:12:56;;;;;;;4.82;2.30;;;34.10;42.80;;;;;;5045901;28;20035;-64
2023/08/23 11:15:22;;;;;;;5.43;2.50;;;34.10;42.10;;;;;;5039205;28;20032;-62
2023/08/23 11:17:48;;;;;;;4.28;1.90;;;34.10;41.30;;;;;;5049202;28;20127;-65
2023/08/23 11:20:15;;;;;;;6.07;2.28;;;34.00;41.10;;;;;;5038686;28;20594;-64
2023/08/23 11:22:41;;;;;;;3.53;2.28;;;33.90;41.20;;;;;;5048398;28;20372;-64
2023/08/23 11:25:07;;;;;;;3.88;1.92;;;33.90;42.50;;;;;;5043527;28;20032;-64
2023/08/23 11:27:33;;;;;;;7.38;2.25;;;33.80;42.10;;;;;;5044896;28;20025;-64
2023/08/23 11:30:00;;;;;;;5.35;2.13;;;33.70;41.50;;;;;;5042951;28;20029;-64
2023/08/23 11:32:26;;;;;;;4.90;2.35;;;33.60;41.80;;;;;;5046322;28;20029;-63
2023/08/23 11:34:54;;;;;;;5.15;2.50;;;33.60;42.40;;;;;;5044096;28;20161;-64
2023/08/23 11:37:23;;;;;;;4.65;2.35;;;33.50;42.50;;;;;;5048100;28;20110;-64
2023/08/23 11:39:58;;;;;;;7.30;2.28;;;33.50;42.60;;;;;;5048644;28;20029;-64
2023/08/23 11:42:25;;;;;;;3.58;2.50;;;33.50;42.30;;;;;;5052786;28;20021;-63
2023/08/23 11:44:55;;;;;;;5.50;1.90;;;33.40;42.10;;;;;;5051825;28;20641;-64
2023/08/23 11:47:25;;;;;;;4.80;1.98;;;33.40;42.60;;;;;;5040665;28;20052;-64
2023/08/23 11:49:52;;;;;;;4.43;2.10;;;33.40;42.90;;;;;;5042717;28;20112;-64
2023/08/23 11:52:18;;;;;;;6.40;2.35;;;33.40;43.50;;;;;;5046684;28;20025;-64
2023/08/23 11:54:44;;;;;;;5.05;2.30;;;33.40;44.40;;;;;;5041001;28;20091;-63
2023/08/23 11:57:13;;;;;;;6.65;2.38;;;33.60;43.80;;;;;;5041741;28;20020;-63
2023/08/23 11:59:39;;;;;;;6.28;2.58;;;33.70;43.10;;;;;;5044777;28;20033;-62
2023/08/23 12:02:07;;;;;;;6.65;2.20;;;33.70;42.80;;;;;;5040012;28;20773;-64
2023/08/23 12:04:33;;;;;;;7.57;2.85;;;33.70;43.10;;;;;;5044200;28;20395;-64
2023/08/23 12:06:58;;;;;;;3.80;2.05;;;33.60;43.30;;;;;;5046261;28;20518;-63
2023/08/23 12:09:25;;;;;;;6.57;2.30;;;33.60;42.80;;;;;;5050889;28;20080;-63
2023/08/23 12:11:53;;;;;;;7.07;2.30;;;33.50;43.10;;;;;;5048157;28;20059;-64
2023/08/23 12:14:19;;;;;;;2.72;2.00;;;33.50;42.90;;;;;;5044218;28;20049;-63
2023/08/23 12:16:45;;;;;;;4.78;2.20;;;33.50;42.60;;;;;;5048295;28;20487;-64
2023/08/23 12:19:10;;;;;;;3.67;2.17;;;33.40;43.10;;;;;;5050295;28;20029;-64
2023/08/23 12:21:36;;;;;;;6.70;2.40;;;33.40;43.30;;;;;;5051117;28;20480;-64
2023/08/23 12:24:02;;;;;;;7.00;2.30;;;33.50;43.80;;;;;;5049082;28;20083;-64
2023/08/23 12:26:28;;;;;;;5.95;2.38;;;33.70;44.10;;;;;;5046989;28;20079;-63
2023/08/23 12:28:54;;;;;;;6.10;2.72;;;33.90;43.70;;;;;;4950146;28;20388;-64
2023/08/23 12:31:20;;;;;;;4.38;2.17;;;34.10;43.70;;;;;;5046767;28;20032;-64
2023/08/23 12:33:46;;;;;;;2.75;1.95;;;34.30;43.30;;;;;;5046697;28;20045;-64
2023/08/23 12:36:14;;;;;;;5.70;2.75;;;34.40;42.40;;;;;;5049134;28;20071;-64
2023/08/23 12:38:39;;;;;;;7.10;2.60;;;34.40;42.10;;;;;;5045748;28;20525;-64
2023/08/23 12:41:05;;;;;;;3.28;2.13;;;34.30;41.50;;;;;;5053728;28;20029;-65